Latest Weather Observations for Sydney Airport

IDN60901

Issued at 11:35 am EST Friday 19 September 2014 (issued every 10 minutes, with the page automatically refreshed every 10 minutes)

About weather observations | Map of Sydney area stations | Latest observations for Sydney area | Other Formats
Station Details ID: 066037 Name: SYDNEY AIRPORT AMO Lat: -33.95 Lon: 151.17 Height: 6.0 m
Data from the previous 72 hours. | See also: Recent months at Sydney Airport
Date/Time
EST
Tmp

°C
App
Tmp
°C
Dew
Point
°C
Rel
Hum
%
Delta-T

°C
Wind Press
QNH
hPa
Press
MSL
hPa
Rain
since
9 am
mm
Dir
 
Spd
km/h
Gust
km/h
Spd
kts
Gust
kts
19/11:30am 17.4 12.9 -0.4 30 7.6 WNW 13 24 7 13 1020.9 1020.9 0.0
19/11:00am 19.0 14.7 1.0 30 8.0 NNW 13 22 7 12 1021.4 1021.4 0.0
19/10:30am 17.6 13.5 2.0 35 7.0 NW 13 30 7 16 1021.7 1021.7 0.0
19/10:00am 17.0 13.4 2.9 39 6.4 WNW 11 19 6 10 1022.1 1022.1 0.0
19/09:30am 16.9 13.3 2.8 39 6.4 WNW 11 13 6 7 1022.1 1022.1 0.0
19/09:00am 15.3 11.7 3.1 44 5.5 NW 11 15 6 8 1022.1 1022.1 0.0
19/08:30am 14.1 10.1 2.8 46 5.0 NW 13 19 7 10 1022.2 1022.2 0.0
19/08:00am 13.0 8.9 2.4 48 4.6 WNW 13 17 7 9 1022.2 1022.2 0.0
19/07:30am 11.3 7.2 2.1 53 3.9 WNW 13 17 7 9 1021.9 1021.9 0.0
19/07:00am 10.2 6.5 2.1 57 3.4 WNW 11 15 6 8 1021.9 1021.9 0.0
19/06:30am 9.4 4.9 2.0 60 3.1 WNW 15 22 8 12 1021.7 1021.7 0.0
19/06:00am 9.3 5.1 1.5 58 3.2 WNW 13 15 7 8 1021.4 1021.4 0.0
19/05:30am 9.5 5.3 1.8 58 3.2 WNW 13 19 7 10 1021.2 1021.2 0.0
19/05:00am 9.1 4.6 1.9 60 3.0 WNW 15 17 8 9 1021.1 1021.1 0.0
19/04:30am 9.2 5.4 2.0 60 3.0 WNW 11 15 6 8 1020.8 1020.8 0.0
19/04:00am 9.9 6.1 1.7 56 3.4 N 11 13 6 7 1020.4 1020.4 0.0
19/03:30am 9.5 5.8 2.1 60 3.1 WNW 11 13 6 7 1020.3 1020.3 0.0
19/03:00am 9.8 5.6 1.9 58 3.3 WNW 13 15 7 8 1020.3 1020.3 0.0
19/02:30am 10.0 6.2 1.6 56 3.5 W 11 15 6 8 1020.4 1020.4 0.0
19/02:00am 10.4 5.4 1.2 53 3.8 WNW 17 19 9 10 1020.7 1020.7 0.0
19/01:30am 10.3 6.1 1.7 55 3.6 W 13 17 7 9 1020.8 1020.8 0.0
19/01:00am 11.1 6.5 1.3 51 4.1 WNW 15 19 8 10 1020.9 1020.9 0.0
19/12:30am 11.7 7.0 1.2 48 4.4 WNW 15 17 8 9 1020.9 1020.9 0.0
19/12:00am 11.9 6.5 1.5 49 4.4 W 19 22 10 12 1021.1 1021.1 0.0
 
Date/Time
EST
Tmp

°C
App
Tmp
°C
Dew
Point
°C
Rel
Hum
%
Delta-T

°C
Wind Press
QNH
hPa
Press
MSL
hPa
Rain
since
9 am
mm
Dir
 
Spd
km/h
Gust
km/h
Spd
kts
Gust
kts
18/11:30pm 12.1 7.9 1.4 48 4.5 WNW 13 15 7 8 1021.2 1021.2 0.0
18/11:00pm 12.5 7.9 1.4 46 4.7 W 15 17 8 9 1021.3 1021.3 0.0
18/10:30pm 12.6 7.9 0.9 44 4.9 WSW 15 17 8 9 1021.2 1021.2 0.0
18/10:00pm 12.8 7.8 1.5 46 4.8 W 17 19 9 10 1021.3 1021.3 0.0
18/09:30pm 13.3 8.2 1.0 43 5.2 W 17 33 9 18 1021.3 1021.3 0.0
18/09:00pm 13.6 9.0 1.5 43 5.2 W 15 20 8 11 1021.3 1021.3 0.0
18/08:30pm 14.0 8.8 2.4 45 5.1 WSW 19 24 10 13 1021.2 1021.2 0.0
18/08:00pm 14.5 9.8 3.1 46 5.1 SW 17 19 9 10 1020.8 1020.8 0.0
18/07:30pm 15.3 11.5 4.0 47 5.2 S 13 19 7 10 1020.2 1020.2 0.0
18/07:00pm 15.5 10.6 2.2 40 5.9 SSE 17 22 9 12 1019.8 1019.8 0.0
18/06:30pm 15.4 10.7 3.0 43 5.6 SSE 17 20 9 11 1019.5 1019.5 0.0
18/06:00pm 15.4 10.4 1.4 38 6.1 SSE 17 22 9 12 1019.2 1019.2 0.0
18/05:30pm 15.4 10.0 2.7 42 5.7 SE 20 28 11 15 1018.9 1018.9 0.0
18/05:00pm 15.9 9.6 1.5 37 6.3 SSE 24 32 13 17 1018.4 1018.4 0.0
18/04:30pm 16.4 9.6 1.0 35 6.7 SE 26 33 14 18 1018.0 1018.0 0.0
18/04:00pm 16.5 10.4 0.5 34 6.9 SSE 22 30 12 16 1017.7 1017.7 0.0
18/03:30pm 16.5 9.2 -0.2 32 7.1 SSE 28 33 15 18 1017.5 1017.5 0.0
18/03:00pm 16.0 9.1 2.7 41 6.0 S 28 37 15 20 1017.3 1017.3 0.0
18/02:30pm 16.2 9.4 1.1 36 6.6 S 26 32 14 17 1017.1 1017.1 0.0
18/02:00pm 17.6 11.6 1.1 33 7.3 SSE 22 28 12 15 1017.2 1017.2 0.0
18/01:30pm 16.4 10.9 1.7 37 6.5 S 20 28 11 15 1017.4 1017.4 0.0
18/01:00pm 17.2 11.4 -1.5 28 7.8 SSE 19 26 10 14 1017.4 1017.4 0.0
18/12:30pm 16.9 11.1 -0.2 31 7.3 SSE 20 26 11 14 1017.6 1017.6 0.0
18/12:00pm 16.9 11.0 1.5 35 6.8 S 22 30 12 16 1017.8 1017.8 0.0
18/11:30am 17.1 11.0 -2.6 26 8.0 SSE 20 28 11 15 1018.1 1018.1 0.0
18/11:00am 17.0 10.6 -1.9 27 7.8 SSE 22 30 12 16 1018.2 1018.2 0.0
18/10:30am 16.4 10.4 -1.9 28 7.5 S 20 33 11 18 1018.4 1018.4 0.0
18/10:00am 16.0 10.3 -0.4 32 6.9 SW 19 26 10 14 1018.5 1018.5 0.0
18/09:30am 15.5 8.4 -1.6 31 7.0 W 26 32 14 17 1018.5 1018.5 0.0
18/09:00am 15.2 6.8 -2.2 30 7.0 W 32 39 17 21 1018.5 1018.5 0.0
18/08:30am 14.2 5.7 -2.9 30 6.7 WSW 32 39 17 21 1018.5 1018.5 0.0
18/08:00am 13.7 5.8 -1.8 34 6.2 W 30 37 16 20 1018.1 1018.1 0.0
18/07:30am 13.3 8.1 0.0 40 5.5 W 17 20 9 11 1018.0 1018.0 0.0
18/07:00am 12.4 6.7 0.6 44 4.9 WSW 20 33 11 18 1017.9 1017.9 0.0
18/06:30am 11.4 6.5 1.7 51 4.1 WSW 17 32 9 17 1017.5 1017.5 0.0
18/06:00am 11.0 6.4 1.8 53 3.9 W 15 17 8 9 1017.1 1017.1 0.0
18/05:30am 11.6 6.7 1.7 50 4.2 W 17 19 9 10 1016.8 1016.8 0.0
18/05:00am 11.9 6.8 0.5 45 4.7 W 17 20 9 11 1016.5 1016.5 0.0
18/04:30am 12.1 6.7 1.2 47 4.6 WSW 19 30 10 16 1016.3 1016.3 0.0
18/04:00am 12.6 7.0 1.0 45 4.9 WSW 20 26 11 14 1016.1 1016.1 0.0
18/03:30am 13.0 8.3 1.2 44 5.0 WSW 15 19 8 10 1015.8 1015.8 0.0
18/03:00am 14.0 6.2 1.5 42 5.4 WSW 32 39 17 21 1015.7 1015.7 0.0
18/02:30am 13.6 6.9 1.5 43 5.2 SW 26 32 14 17 1015.5 1015.5 0.0
18/02:00am 13.0 7.3 0.3 41 5.3 W 20 28 11 15 1015.2 1015.2 0.0
18/01:30am 13.3 6.8 0.4 41 5.4 W 24 35 13 19 1015.2 1015.2 0.0
18/01:00am 13.5 7.0 0.0 39 5.6 W 24 33 13 18 1015.3 1015.3 0.0
18/12:30am 13.1 8.9 1.4 45 5.0 W 13 17 7 9 1015.3 1015.3 0.0
18/12:00am 13.8 9.5 1.2 42 5.4 WNW 13 19 7 10 1015.1 1015.1 0.0
 
Date/Time
EST
Tmp

°C
App
Tmp
°C
Dew
Point
°C
Rel
Hum
%
Delta-T

°C
Wind Press
QNH
hPa
Press
MSL
hPa
Rain
since
9 am
mm
Dir
 
Spd
km/h
Gust
km/h
Spd
kts
Gust
kts
17/11:30pm 14.2 10.0 1.8 43 5.4 WNW 13 15 7 8 1015.0 1015.0 0.0
17/11:00pm 14.3 10.2 2.0 43 5.4 W 13 17 7 9 1015.0 1015.0 0.0
17/10:30pm 14.8 9.4 2.4 43 5.5 W 20 28 11 15 1014.8 1014.8 0.0
17/10:00pm 15.3 9.9 2.2 41 5.8 W 20 30 11 16 1014.6 1014.6 0.0
17/09:30pm 15.9 11.0 1.9 39 6.2 WNW 17 22 9 12 1014.4 1014.4 0.0
17/09:00pm 15.7 9.8 1.6 38 6.2 W 22 33 12 18 1014.2 1014.2 0.0
17/08:30pm 15.4 12.0 2.1 40 5.9 W 9 13 5 7 1014.0 1014.0 0.0
17/08:00pm 16.2 11.9 1.1 36 6.6 WSW 13 15 7 8 1013.7 1013.7 0.0
17/07:30pm 16.6 11.7 1.8 37 6.6 WSW 17 24 9 13 1013.5 1013.5 0.0
17/07:00pm 17.6 11.0 -0.3 29 7.7 W 24 32 13 17 1013.2 1013.2 0.0
17/06:30pm 18.1 9.9 -0.9 27 8.1 W 32 43 17 23 1012.6 1012.6 0.0
17/06:00pm 18.5 10.2 -1.7 25 8.5 W 32 41 17 22 1012.1 1012.1 0.0
17/05:30pm 19.8 12.2 -1.8 23 9.2 W 28 39 15 21 1011.6 1011.6 0.0
17/05:00pm 19.8 11.8 -2.7 21 9.4 W 30 39 16 21 1011.4 1011.4 0.0
17/04:30pm 20.7 11.6 -3.8 19 10.1 W 35 48 19 26 1010.9 1010.9 0.0
17/04:00pm 20.9 11.9 -2.8 20 10.0 W 35 50 19 27 1010.7 1010.7 0.0
17/03:49pm 20.9 10.6 -3.8 18 10.2 W 41 59 22 32 1010.5 1010.5 0.0
17/03:30pm 20.4 9.7 -2.6 21 9.7 W 44 56 24 30 1010.2 1010.2 0.0
17/03:19pm 20.7 11.4 -2.4 21 9.8 W 37 56 20 30 1010.2 1010.2 0.0
17/03:00pm 21.4 12.4 -3.0 19 10.3 W 35 44 19 24 1010.1 1010.1 0.0
17/02:36pm 22.0 13.5 -3.0 18 10.6 W 32 54 17 29 1010.1 1010.1 0.0
17/02:30pm 21.5 12.6 -2.3 20 10.2 W 35 48 19 26 1010.1 1010.1 0.0
17/02:00pm 20.9 11.0 -1.1 23 9.6 W 41 50 22 27 1010.0 1010.0 0.0
17/01:53pm 21.0 11.8 -1.3 22 9.7 WSW 37 50 20 27 1010.0 1010.0 0.0
17/01:33pm 21.8 13.4 -2.1 20 10.3 WNW 32 50 17 27 1010.2 1010.2 0.0
17/01:30pm 21.4 12.7 -3.0 19 10.3 WNW 33 50 18 27 1010.2 1010.2 0.0
17/01:00pm 22.0 14.1 -1.2 21 10.2 W 30 41 16 22 1010.2 1010.2 0.0
17/12:42pm 22.0 14.4 -2.1 20 10.4 W 28 48 15 26 1010.3 1010.3 0.0
17/12:30pm 20.6 11.7 -2.2 21 9.7 W 35 44 19 24 1010.4 1010.4 0.0
17/12:00pm 20.6 13.1 -1.4 22 9.5 W 28 41 15 22 1010.7 1010.7 0.0
17/11:30am 20.3 11.2 -0.4 25 9.1 W 37 48 20 26 1010.9 1010.9 0.0
17/11:00am 19.7 11.0 -0.8 25 8.9 W 35 48 19 26 1011.2 1011.2 0.0
17/10:30am 18.8 9.9 -2.3 24 8.8 W 35 46 19 25 1011.4 1011.4 0.0
17/10:00am 19.2 9.0 -0.6 26 8.6 WSW 43 54 23 29 1011.4 1011.4 0.0
17/09:44am 18.5 9.4 -0.5 27 8.2 W 37 56 20 30 1011.6 1011.6 0.0
17/09:30am 18.5 9.2 0.6 30 7.9 W 39 54 21 29 1011.9 1011.9 0.0
17/09:00am 17.5 8.3 1.3 33 7.2 W 39 57 21 31 1012.2 1012.2 0.0
17/08:54am 17.6 8.9 1.8 34 7.1 W 37 56 20 30 1012.1 1012.1 0.0
17/08:30am 17.0 8.7 2.4 37 6.6 W 35 48 19 26 1012.2 1012.2 0.0
17/08:11am 16.9 9.2 2.3 37 6.6 W 32 50 17 27 1012.2 1012.2 0.0
17/08:00am 16.7 9.0 2.3 38 6.5 W 32 44 17 24 1012.2 1012.2 0.0
17/07:30am 16.5 9.2 2.6 39 6.3 W 30 39 16 21 1012.1 1012.1 0.0
17/07:00am 15.8 9.1 3.9 45 5.5 WNW 28 37 15 20 1011.9 1011.9 0.0
17/06:30am 15.6 10.9 5.0 49 5.0 NW 19 26 10 14 1011.6 1011.6 0.0
17/06:00am 14.3 10.6 6.2 58 3.9 NW 15 17 8 9 1011.2 1011.2 0.0
17/05:30am 14.6 10.5 6.3 57 4.0 NW 17 20 9 11 1010.8 1010.8 0.0
17/05:00am 13.7 10.1 6.7 62 3.4 N 15 17 8 9 1010.5 1010.5 0.0
17/04:30am 14.5 11.3 6.9 60 3.7 NW 13 15 7 8 1009.9 1009.9 0.0
17/04:00am 14.6 10.3 7.0 60 3.7 W 19 24 10 13 1009.7 1009.7 0.0
17/03:30am 14.8 10.8 6.6 58 4.0 WNW 17 22 9 12 1009.5 1009.5 0.0
17/03:00am 14.8 9.8 6.6 58 4.0 WNW 22 26 12 14 1009.3 1009.3 0.0
17/02:30am 14.8 9.8 6.6 58 4.0 W 22 28 12 15 1009.4 1009.4 0.0
17/02:00am 14.8 10.2 6.3 56 4.1 W 20 26 11 14 1009.4 1009.4 0.0
17/01:30am 14.6 10.1 6.3 57 4.0 NW 19 24 10 13 1009.4 1009.4 0.0
17/01:00am 14.9 10.4 5.9 55 4.3 NW 19 24 10 13 1009.5 1009.5 0.0
17/12:30am 14.8 10.8 6.6 58 4.0 NW 17 22 9 12 1009.6 1009.6 0.0
17/12:00am 14.9 11.6 6.2 56 4.2 WNW 13 15 7 8 1009.6 1009.6 0.0
 
Date/Time
EST
Tmp

°C
App
Tmp
°C
Dew
Point
°C
Rel
Hum
%
Delta-T

°C
Wind Press
QNH
hPa
Press
MSL
hPa
Rain
since
9 am
mm
Dir
 
Spd
km/h
Gust
km/h
Spd
kts
Gust
kts
16/11:30pm 15.8 12.4 5.8 51 4.8 NW 13 15 7 8 1009.6 1009.6 0.0
16/11:00pm 16.2 11.5 5.1 47 5.3 NW 19 28 10 15 1009.4 1009.4 0.0
16/10:30pm 16.5 10.9 5.5 48 5.3 WNW 24 32 13 17 1009.4 1009.4 0.0
16/10:00pm 16.8 10.1 5.4 47 5.5 WNW 30 37 16 20 1009.2 1009.2 0.0
16/09:30pm 17.0 9.8 5.1 45 5.7 W 32 41 17 22 1009.3 1009.3 0.0
16/09:00pm 17.3 10.1 5.0 44 5.9 W 32 41 17 22 1009.4 1009.4 0.0
16/08:30pm 18.2 10.3 4.6 40 6.5 WNW 35 41 19 22 1009.2 1009.2 0.0
16/08:16pm 18.5 9.9 4.8 40 6.6 W 39 57 21 31 1009.2 1009.2 0.0
16/08:00pm 18.6 10.4 4.7 40 6.7 W 37 48 20 26 1009.2 1009.2 0.0
16/07:30pm 19.3 12.3 4.3 37 7.2 W 30 39 16 21 1009.0 1009.0 0.0
16/07:00pm 19.6 12.2 4.2 36 7.4 W 32 41 17 22 1008.8 1008.8 0.0
16/06:30pm 20.2 11.5 3.9 34 7.8 W 39 48 21 26 1008.1 1008.1 0.0
16/06:00pm 21.0 12.1 3.1 30 8.5 W 39 50 21 27 1007.5 1007.5 0.0
16/05:30pm 21.6 14.3 2.2 27 9.1 W 30 37 16 20 1006.9 1006.9 0.0
16/05:00pm 22.3 14.6 2.4 27 9.4 WNW 32 46 17 25 1006.5 1006.5 0.0
16/04:50pm 23.1 16.3 2.9 26 9.7 WNW 28 37 15 20 1006.3 1006.3 0.0
16/04:30pm 21.4 21.5 14.0 62 4.3 N 6 11 3 6 1006.2 1006.2 0.0
16/04:00pm 20.5 20.3 13.5 64 4.0 SSE 7 9 4 5 1006.0 1006.0 0.0
16/03:30pm 19.9 19.2 14.4 70 3.2 S 11 19 6 10 1005.7 1005.7 0.0
16/03:00pm 22.9 19.0 13.2 54 5.6 NNE 26 32 14 17 1005.3 1005.3 0.0
16/02:30pm 20.8 15.4 12.9 60 4.5 NNE 33 39 18 21 1005.2 1005.2 0.0
16/02:00pm 20.9 16.1 13.0 60 4.5 NNE 30 35 16 19 1005.7 1005.7 0.0
16/01:30pm 21.7 16.6 13.0 57 5.0 NNE 32 37 17 20 1005.8 1005.8 0.0
16/01:00pm 22.5 17.7 12.9 54 5.5 NNE 30 35 16 19 1006.3 1006.3 0.0
16/12:30pm 22.3 16.3 12.2 52 5.7 NNE 35 46 19 25 1006.9 1006.9 0.0
16/12:00pm 21.5 15.3 12.5 56 5.1 NNE 37 48 20 26 1007.6 1007.6 0.0

Latest Capital City Observations: Canberra | Sydney | Melbourne | Brisbane | Adelaide | Perth | Hobart | Darwin

Other Formats:

Comma delimited format used in spreadsheet applications
http://www.bom.gov.au/fwo/IDN60901/IDN60901.94767.axf

JavaScript Object Notation format (JSON) in row-major order
http://www.bom.gov.au/fwo/IDN60901/IDN60901.94767.json